KATW/ATW METAR and TAF weather

Enter ICAO airport designator
Station Type Date Time Source
KATW METAR 2019/04/25 01:45 UTC NOAA

KATW 250145Z 21012G16KT 10SM SCT120 15/02 A2979


Station Type Date Time Source
KATW Decoded METAR 2019/04/25 01:45 UTC NOAA

Appleton / Outagamie, WI, United States (KATW) 44-15N 088-31W
Apr 24, 2019 - 09:45 PM EDT / 2019.04.25 0145 UTC
Wind: from the SSW (210 degrees) at 14 MPH (12 KT) gusting to 18 MPH (16 KT):0
Visibility: 10 mile(s):0
Sky conditions: partly cloudy
Temperature: 59 F (15 C)
Dew Point: 35 F (2 C)
Relative Humidity: 41%
Pressure (altimeter): 29.79 in. Hg (1008 hPa)
ob: KATW 250145Z 21012G16KT 10SM SCT120 15/02 A2979
cycle: 2

Station Type Date Time Source
KATW TAF 2019/04/24 18:22 UTC NOAA

TAF KATW 241720Z 2418/2518 18010G16KT P6SM FEW040 SCT120 SCT250
FM250100 18007KT P6SM SCT120 BKN200
FM250900 21004KT P6SM SCT080 BKN120
FM251300 23005KT P6SM VCSH SCT035 OVC070
FM251600 29006KT P6SM -SHRA SCT025 OVC050
TEMPO 2516/2518 5SM -SHRA BR BKN025

Example: see airport list